Terminal Aerodrome Forecast
Issued by NWS

Home | Current Version | Previous Version | Text Only | Print | Product List | Glossary On
Versions: 1 2 3 4 5 6 7 8 9 10 11 12 13 14 15
000
FTUS42 KGSP 202339
TAFHKY
TAF
KHKY 202339Z 2100/2124 08003KT P6SM FEW250
     FM211000 VRB02KT 5SM BR FEW250
     FM211300 VRB02KT P6SM FEW250
     FM211700 16003KT P6SM FEW050=

USA.gov is the U.S. government's official web portal to all federal, state and local government web resources and services.